createdAt,value
2022-12-18T00:01:25.234Z,-3.24
2022-12-18T00:03:52.688Z,-3.46
2022-12-18T00:06:19.554Z,-4.01
2022-12-18T00:08:46.962Z,-3.52
2022-12-18T00:11:15.562Z,-3.53
2022-12-18T00:13:43.726Z,-3.36
2022-12-18T00:16:13.252Z,-3.62
2022-12-18T00:18:40.393Z,-3.41
2022-12-18T00:21:09.909Z,-3.56
2022-12-18T00:23:37.999Z,-3.50
2022-12-18T00:26:07.454Z,-4.00
2022-12-18T00:28:34.261Z,-3.93
2022-12-18T00:31:03.173Z,-3.71
2022-12-18T00:33:30.241Z,-3.89
2022-12-18T00:36:01.727Z,-3.67
2022-12-18T00:38:28.283Z,-3.40
2022-12-18T00:40:54.703Z,-3.83
2022-12-18T00:43:21.154Z,-3.18
2022-12-18T00:45:47.625Z,-3.52
2022-12-18T00:48:15.485Z,-3.65
2022-12-18T00:50:42.164Z,-3.27
2022-12-18T00:53:12.251Z,-3.58
2022-12-18T00:55:38.782Z,-2.92
2022-12-18T00:58:05.215Z,-3.06
2022-12-18T01:00:31.621Z,-3.42
2022-12-18T01:02:58.178Z,-3.57
2022-12-18T01:05:26.794Z,-3.68
2022-12-18T01:07:53.293Z,-3.95
2022-12-18T01:10:20.013Z,-3.76
2022-12-18T01:12:46.520Z,-3.30
2022-12-18T01:15:14.447Z,-3.69
2022-12-18T01:17:40.974Z,-3.77
2022-12-18T01:20:08.626Z,-4.15
2022-12-18T01:22:36.434Z,-4.06
2022-12-18T01:25:04.518Z,-4.16
2022-12-18T01:27:31.442Z,-4.06
2022-12-18T01:29:57.871Z,-4.06
2022-12-18T01:32:24.279Z,-3.95
2022-12-18T01:34:50.732Z,-3.94
2022-12-18T01:37:17.259Z,-3.92
2022-12-18T01:39:45.046Z,-3.90
2022-12-18T01:42:13.958Z,-4.01
2022-12-18T01:44:59.072Z,-3.97
2022-12-18T01:47:29.334Z,-3.86
2022-12-18T01:49:57.835Z,-4.05
2022-12-18T01:52:25.691Z,-3.96
2022-12-18T01:54:54.577Z,-3.90
2022-12-18T01:57:21.136Z,-3.92
2022-12-18T01:59:52.636Z,-4.26
2022-12-18T02:02:19.668Z,-4.05
2022-12-18T02:04:49.566Z,-4.17
2022-12-18T02:07:24.587Z,-3.94
2022-12-18T02:09:59.876Z,-4.09
2022-12-18T02:12:32.926Z,-3.85
2022-12-18T02:15:03.652Z,-4.14
2022-12-18T02:17:38.088Z,-3.63
2022-12-18T02:20:13.044Z,-3.93
2022-12-18T02:22:49.179Z,-4.12
2022-12-18T02:25:30.920Z,-4.05
2022-12-18T02:28:01.442Z,-3.95
2022-12-18T02:30:32.301Z,-4.02
2022-12-18T02:33:01.905Z,-3.64
2022-12-18T02:35:31.083Z,-3.88
2022-12-18T02:37:58.979Z,-4.08
2022-12-18T02:40:28.163Z,-4.07
2022-12-18T02:42:54.695Z,-3.93
2022-12-18T02:45:22.499Z,-3.97
2022-12-18T02:47:50.672Z,-4.00
2022-12-18T02:50:23.436Z,-4.03
2022-12-18T02:53:00.445Z,-3.89
2022-12-18T02:55:35.954Z,-4.03
2022-12-18T02:58:06.600Z,-4.21
2022-12-18T03:00:40.161Z,-4.30
2022-12-18T03:03:12.425Z,-4.53
2022-12-18T03:05:44.484Z,-4.43
2022-12-18T03:08:15.613Z,-4.43
2022-12-18T03:10:50.362Z,-4.34
2022-12-18T03:13:22.484Z,-4.50
2022-12-18T03:15:54.005Z,-4.39
2022-12-18T03:18:25.754Z,-4.28
2022-12-18T03:20:54.825Z,-4.50
2022-12-18T03:23:26.323Z,-4.23
2022-12-18T03:25:56.778Z,-4.65
2022-12-18T03:28:24.337Z,-4.64
2022-12-18T03:30:56.723Z,-4.66
2022-12-18T03:33:28.390Z,-4.77
2022-12-18T03:35:54.862Z,-4.57
2022-12-18T03:38:21.423Z,-4.50
2022-12-18T03:40:57.765Z,-4.44
2022-12-18T03:43:36.307Z,-3.96
2022-12-18T03:46:08.906Z,-4.53
2022-12-18T03:48:42.707Z,-4.37
2022-12-18T03:51:11.200Z,-3.98
2022-12-18T03:53:45.002Z,-4.07
2022-12-18T03:56:14.277Z,-3.94
2022-12-18T03:58:42.546Z,-4.00
2022-12-18T04:01:14.570Z,-3.93
2022-12-18T04:03:43.429Z,-3.87
2022-12-18T04:06:10.894Z,-3.92
2022-12-18T04:08:37.901Z,-3.56
2022-12-18T04:11:04.593Z,-3.59
2022-12-18T04:13:36.408Z,-3.60
2022-12-18T04:16:03.562Z,-3.71
2022-12-18T04:18:31.741Z,-3.67
2022-12-18T04:20:58.146Z,-4.31
2022-12-18T04:23:24.595Z,-4.24
2022-12-18T04:25:50.996Z,-3.85
2022-12-18T04:28:17.961Z,-3.60
2022-12-18T04:30:44.455Z,-3.31
2022-12-18T04:33:11.391Z,-3.53
2022-12-18T04:35:39.495Z,-3.82
2022-12-18T04:38:06.911Z,-4.46
2022-12-18T04:40:33.400Z,-5.00
2022-12-18T04:42:59.897Z,-4.61
2022-12-18T04:45:26.706Z,-4.03
2022-12-18T04:47:53.129Z,-3.71
2022-12-18T04:50:19.541Z,-3.54
2022-12-18T04:52:47.293Z,-3.52
2022-12-18T04:55:13.689Z,-3.62
2022-12-18T04:57:40.079Z,-4.24
2022-12-18T05:00:08.077Z,-3.74
2022-12-18T05:02:34.612Z,-4.03
2022-12-18T05:05:01.166Z,-4.45
2022-12-18T05:07:27.807Z,-5.03
2022-12-18T05:09:55.550Z,-4.33
2022-12-18T05:12:21.963Z,-4.09
2022-12-18T05:14:48.562Z,-3.93
2022-12-18T05:17:14.985Z,-4.04
2022-12-18T05:19:41.387Z,-3.88
2022-12-18T05:22:07.946Z,-4.14
2022-12-18T05:24:34.477Z,-4.07
2022-12-18T05:27:02.398Z,-4.01
2022-12-18T05:29:28.815Z,-3.85
2022-12-18T05:31:55.239Z,-4.06
2022-12-18T05:34:21.782Z,-3.98
2022-12-18T05:36:48.206Z,-3.81
2022-12-18T05:39:14.601Z,-4.06
2022-12-18T05:41:41.013Z,-4.14
2022-12-18T05:44:09.381Z,-4.14
2022-12-18T05:46:35.882Z,-4.16
2022-12-18T05:49:02.703Z,-4.40
2022-12-18T05:51:29.165Z,-4.41
2022-12-18T05:53:55.824Z,-4.00
2022-12-18T05:56:23.635Z,-4.14
2022-12-18T05:58:52.481Z,-4.55
2022-12-18T06:01:23.283Z,-4.08
2022-12-18T06:03:49.769Z,-4.01
2022-12-18T06:06:18.436Z,-3.96
2022-12-18T06:08:46.630Z,-4.19
2022-12-18T06:11:13.449Z,-4.34
2022-12-18T06:13:40.293Z,-4.37
2022-12-18T06:16:07.625Z,-4.23
2022-12-18T06:18:35.592Z,-4.47
2022-12-18T06:21:02.206Z,-4.34
2022-12-18T06:23:28.910Z,-4.28
2022-12-18T06:25:55.630Z,-4.10
2022-12-18T06:28:22.329Z,-3.95
2022-12-18T06:30:49.244Z,-4.44
2022-12-18T06:33:16.401Z,-4.21
2022-12-18T06:35:44.178Z,-3.98
2022-12-18T06:38:10.587Z,-4.21
2022-12-18T06:40:38.628Z,-4.19
2022-12-18T06:43:05.217Z,-4.16
2022-12-18T06:45:31.827Z,-4.65
2022-12-18T06:47:58.261Z,-4.84
2022-12-18T06:50:25.612Z,-4.79
2022-12-18T06:52:53.375Z,-4.48
2022-12-18T06:55:19.801Z,-3.98
2022-12-18T06:57:46.241Z,-4.07
2022-12-18T07:00:13.434Z,-4.74
2022-12-18T07:02:39.915Z,-3.92
2022-12-18T07:05:10.730Z,-4.11
2022-12-18T07:07:37.608Z,-4.16
2022-12-18T07:10:06.172Z,-4.26
2022-12-18T07:12:32.590Z,-4.34
2022-12-18T07:14:58.995Z,-4.10
2022-12-18T07:17:25.427Z,-3.91
2022-12-18T07:19:52.115Z,-3.92
2022-12-18T07:22:18.908Z,-3.91
2022-12-18T07:24:45.362Z,-4.12
2022-12-18T07:27:13.289Z,-4.25
2022-12-18T07:29:40.288Z,-4.03
2022-12-18T07:32:06.857Z,-4.08
2022-12-18T07:34:33.470Z,-3.94
2022-12-18T07:36:59.891Z,-4.31
2022-12-18T07:39:26.313Z,-4.03
2022-12-18T07:41:52.772Z,-3.98
2022-12-18T07:44:20.577Z,-4.02
2022-12-18T07:46:47.022Z,-4.16
2022-12-18T07:49:13.426Z,-4.90
2022-12-18T07:51:39.804Z,-4.13
2022-12-18T07:54:06.181Z,-4.33
2022-12-18T07:56:32.755Z,-3.93
2022-12-18T07:58:59.827Z,-4.34
2022-12-18T08:01:27.927Z,-4.12
2022-12-18T08:03:54.503Z,-4.12
2022-12-18T08:06:22.517Z,-4.07
2022-12-18T08:08:51.904Z,-4.12
2022-12-18T08:11:18.326Z,-4.24
2022-12-18T08:13:46.306Z,-4.03
2022-12-18T08:16:12.792Z,-4.54
2022-12-18T08:18:40.567Z,-4.21
2022-12-18T08:21:10.504Z,-3.85
2022-12-18T08:23:42.330Z,-3.87
2022-12-18T08:26:09.697Z,-3.79
2022-12-18T08:28:36.124Z,-3.68
2022-12-18T08:31:02.638Z,-3.93
2022-12-18T08:33:29.494Z,-3.81
2022-12-18T08:35:59.074Z,-3.68
2022-12-18T08:38:25.558Z,-4.14
2022-12-18T08:40:59.717Z,-3.89
2022-12-18T08:43:26.144Z,-3.71
2022-12-18T08:45:52.621Z,-3.67
2022-12-18T08:48:22.170Z,-3.57
2022-12-18T08:50:55.155Z,-4.26
2022-12-18T08:53:22.915Z,-3.92
2022-12-18T08:55:50.462Z,-3.62
2022-12-18T08:58:17.141Z,-3.68
2022-12-18T09:00:43.544Z,-4.14
2022-12-18T09:03:12.648Z,-4.19
2022-12-18T09:05:39.142Z,-3.57
2022-12-18T09:08:05.634Z,-3.37
2022-12-18T09:10:34.269Z,-3.46
2022-12-18T09:13:02.927Z,-3.69
2022-12-18T09:15:29.322Z,-3.72
2022-12-18T09:17:55.742Z,-3.91
2022-12-18T09:20:22.159Z,-3.35
2022-12-18T09:22:48.585Z,-3.10
2022-12-18T09:25:15.027Z,-3.68
2022-12-18T09:27:42.764Z,-3.43
2022-12-18T09:30:10.471Z,-3.31
2022-12-18T09:32:36.892Z,-3.21
2022-12-18T09:35:03.906Z,-3.05
2022-12-18T09:37:30.443Z,-3.09
2022-12-18T09:39:56.838Z,-2.84
2022-12-18T09:42:23.647Z,-2.79
2022-12-18T09:44:54.175Z,-2.67
2022-12-18T09:47:24.661Z,-2.49
2022-12-18T09:49:55.550Z,-2.32
2022-12-18T09:52:27.184Z,-2.62
2022-12-18T09:54:59.373Z,-3.05
2022-12-18T09:57:25.936Z,-2.47
2022-12-18T09:59:57.205Z,-2.39
2022-12-18T10:02:25.845Z,-2.03
2022-12-18T10:05:02.950Z,-2.26
2022-12-18T10:07:38.248Z,-1.82
2022-12-18T10:10:13.378Z,-1.72
2022-12-18T10:12:51.676Z,-2.17
2022-12-18T10:15:25.332Z,-2.34
2022-12-18T10:17:59.928Z,-1.86
2022-12-18T10:20:32.871Z,-1.43
2022-12-18T10:23:04.595Z,-1.44
2022-12-18T10:25:40.059Z,-1.55
2022-12-18T10:28:12.984Z,-1.91
2022-12-18T10:30:42.250Z,-1.39
2022-12-18T10:33:12.191Z,-1.76
2022-12-18T10:35:42.359Z,-1.13
2022-12-18T10:38:23.091Z,-1.23
2022-12-18T10:40:52.651Z,-0.97
2022-12-18T10:43:22.726Z,-0.35
2022-12-18T10:46:03.041Z,-0.92
2022-12-18T10:48:31.586Z,-1.11
2022-12-18T10:51:14.123Z,-0.87
2022-12-18T10:53:42.594Z,-1.28
2022-12-18T10:56:09.549Z,-0.62
2022-12-18T10:58:37.922Z,-1.27
2022-12-18T11:01:09.593Z,-1.05
2022-12-18T11:03:38.203Z,-1.03
2022-12-18T11:06:08.143Z,-0.65
2022-12-18T11:08:34.851Z,-0.64
2022-12-18T11:11:01.564Z,-0.23
2022-12-18T11:13:30.779Z,-0.92
2022-12-18T11:15:57.978Z,-0.94
2022-12-18T11:18:29.521Z,-0.17
2022-12-18T11:20:58.865Z,-0.10
2022-12-18T11:23:26.942Z,0.22
2022-12-18T11:26:01.739Z,-0.47
2022-12-18T11:28:37.794Z,-0.24
2022-12-18T11:31:25.635Z,0.21
2022-12-18T11:36:48.959Z,-0.04
2022-12-18T11:39:21.434Z,-0.10
2022-12-18T11:41:55.788Z,-0.05
2022-12-18T11:44:28.667Z,0.01
2022-12-18T11:47:01.159Z,-0.28
2022-12-18T11:49:34.188Z,0.03
2022-12-18T11:52:05.593Z,-0.23
2022-12-18T11:54:32.033Z,-0.38
2022-12-18T11:57:10.878Z,-0.30
2022-12-18T11:59:49.723Z,-0.22
2022-12-18T12:02:30.841Z,-0.03
2022-12-18T12:05:15.259Z,-0.24
2022-12-18T12:07:49.027Z,-0.21
2022-12-18T12:10:25.009Z,-0.58
2022-12-18T12:13:08.643Z,-0.31
2022-12-18T12:15:42.919Z,-0.52
2022-12-18T12:18:25.465Z,-0.33
2022-12-18T12:21:03.552Z,-0.58
2022-12-18T12:23:42.430Z,-0.01
2022-12-18T12:26:12.606Z,-0.13
2022-12-18T12:29:22.806Z,-0.07
2022-12-18T12:32:01.868Z,-0.14
2022-12-18T12:34:35.439Z,0.14
2022-12-18T12:37:19.795Z,-0.14
2022-12-18T12:39:47.914Z,-0.24
2022-12-18T12:42:21.009Z,-0.19
2022-12-18T12:44:56.326Z,-0.24
2022-12-18T12:47:29.201Z,-0.17
2022-12-18T12:49:58.984Z,-0.30
2022-12-18T12:52:33.216Z,-0.46
2022-12-18T12:55:01.878Z,-0.61
2022-12-18T12:57:35.218Z,-0.43
2022-12-18T13:00:06.024Z,-0.40
2022-12-18T13:02:40.302Z,-0.31
2022-12-18T13:05:17.214Z,-0.38
2022-12-18T13:07:51.055Z,-0.39
2022-12-18T13:10:35.408Z,-0.41
2022-12-18T13:13:04.931Z,-0.40
2022-12-18T13:18:25.382Z,-0.61
2022-12-18T13:21:04.666Z,-0.73
2022-12-18T13:23:36.881Z,-0.84
2022-12-18T13:26:33.688Z,-0.53
2022-12-18T13:29:00.882Z,-0.78
2022-12-18T13:31:59.928Z,-0.60
2022-12-18T13:34:29.342Z,-0.55
2022-12-18T13:36:58.352Z,-0.78
2022-12-18T13:39:35.181Z,-0.88
2022-12-18T13:42:38.682Z,-1.00
2022-12-18T13:45:47.567Z,-1.27
2022-12-18T13:48:19.687Z,-1.26
2022-12-18T13:50:55.703Z,-1.30
2022-12-18T13:53:25.735Z,-0.88
2022-12-18T13:55:52.549Z,-1.09
2022-12-18T13:58:19.088Z,-1.16
2022-12-18T14:00:47.051Z,-1.25
2022-12-18T14:03:22.843Z,-1.76
2022-12-18T14:05:56.683Z,-1.53
2022-12-18T14:08:25.881Z,-1.49
2022-12-18T14:10:52.332Z,-1.32
2022-12-18T14:13:25.142Z,-1.08
2022-12-18T14:15:53.140Z,-1.48
2022-12-18T14:18:25.192Z,-1.60
2022-12-18T14:20:53.544Z,-1.45
2022-12-18T14:23:29.052Z,-1.24
2022-12-18T14:25:55.684Z,-1.51
2022-12-18T14:28:23.920Z,-2.04
2022-12-18T14:30:51.127Z,-1.95
2022-12-18T14:33:20.727Z,-1.81
2022-12-18T14:35:55.208Z,-1.89
2022-12-18T14:38:25.233Z,-2.17
2022-12-18T14:40:54.023Z,-2.21
2022-12-18T14:43:20.911Z,-2.17
2022-12-18T14:45:48.434Z,-2.12
2022-12-18T14:48:19.009Z,-2.20
2022-12-18T14:50:59.533Z,-2.34
2022-12-18T14:53:34.661Z,-1.96
2022-12-18T14:56:01.748Z,-2.01
2022-12-18T14:58:28.366Z,-2.15
2022-12-18T15:00:55.641Z,-2.30
2022-12-18T15:03:22.886Z,-2.30
2022-12-18T15:05:49.674Z,-1.78
2022-12-18T15:08:32.065Z,-1.82
2022-12-18T15:10:59.379Z,-2.10
2022-12-18T15:13:26.154Z,-2.02
2022-12-18T15:15:53.637Z,-2.33
2022-12-18T15:18:22.132Z,-2.03
2022-12-18T15:20:50.469Z,-2.12
2022-12-18T15:23:20.345Z,-2.14
2022-12-18T15:25:55.896Z,-2.04
2022-12-18T15:28:25.454Z,-2.15
2022-12-18T15:31:03.878Z,-1.98
2022-12-18T15:33:33.909Z,-2.08
2022-12-18T15:36:02.504Z,-2.16
2022-12-18T15:38:28.938Z,-2.14
2022-12-18T15:40:57.377Z,-2.11
2022-12-18T15:43:25.299Z,-2.36
2022-12-18T15:45:51.691Z,-2.12
2022-12-18T15:48:22.221Z,-2.48
2022-12-18T15:50:49.187Z,-2.22
2022-12-18T15:53:15.791Z,-2.21
2022-12-18T15:55:42.324Z,-2.28
2022-12-18T15:58:11.354Z,-2.47
2022-12-18T16:00:40.867Z,-2.53
2022-12-18T16:03:07.682Z,-2.47
2022-12-18T16:05:34.229Z,-2.34
2022-12-18T16:08:00.699Z,-2.42
2022-12-18T16:10:27.265Z,-2.43
2022-12-18T16:12:53.736Z,-1.81
2022-12-18T16:15:24.799Z,-1.98
2022-12-18T16:17:52.112Z,-2.02
2022-12-18T16:20:20.896Z,-2.20
2022-12-18T16:22:47.893Z,-2.05
2022-12-18T16:25:21.017Z,-1.97
2022-12-18T16:27:47.578Z,-2.28
2022-12-18T16:30:16.167Z,-2.06
2022-12-18T16:32:44.306Z,-2.19
2022-12-18T16:35:12.092Z,-1.66
2022-12-18T16:37:38.647Z,-1.71
2022-12-18T16:40:07.319Z,-1.86
2022-12-18T16:42:33.730Z,-1.50
2022-12-18T16:45:00.127Z,-1.97
2022-12-18T16:47:26.576Z,-1.80
2022-12-18T16:49:54.320Z,-2.14
2022-12-18T16:52:22.313Z,-2.19
2022-12-18T16:54:49.074Z,-1.84
2022-12-18T16:57:17.570Z,-1.98
2022-12-18T16:59:44.051Z,-2.05
2022-12-18T17:02:13.898Z,-1.89
2022-12-18T17:04:40.394Z,-1.95
2022-12-18T17:07:08.174Z,-1.63
2022-12-18T17:09:34.819Z,-1.89
2022-12-18T17:12:04.211Z,-1.75
2022-12-18T17:14:32.718Z,-1.80
2022-12-18T17:17:20.477Z,-1.82
2022-12-18T17:19:45.742Z,-1.62
2022-12-18T17:22:13.493Z,-1.75
2022-12-18T17:24:39.901Z,-1.41
2022-12-18T17:27:06.361Z,-1.70
2022-12-18T17:29:32.927Z,-1.61
2022-12-18T17:32:00.416Z,-1.36
2022-12-18T17:34:29.751Z,-1.62
2022-12-18T17:36:56.602Z,-1.76
2022-12-18T17:39:24.336Z,-1.29
2022-12-18T17:41:50.755Z,-1.55
2022-12-18T17:44:17.877Z,-1.49
2022-12-18T17:46:44.498Z,-1.51
2022-12-18T17:49:11.474Z,-1.49
2022-12-18T17:51:37.939Z,-1.19
2022-12-18T17:54:04.779Z,-1.35
2022-12-18T17:56:32.551Z,-1.19
2022-12-18T17:58:59.682Z,-1.40
2022-12-18T18:01:27.023Z,-1.20
2022-12-18T18:03:54.481Z,-1.65
2022-12-18T18:06:21.401Z,-1.50
2022-12-18T18:08:48.061Z,-1.38
2022-12-18T18:11:17.599Z,-1.37
2022-12-18T18:13:47.193Z,-1.64
2022-12-18T18:16:13.900Z,-1.23
2022-12-18T18:18:40.428Z,-1.40
2022-12-18T18:21:08.679Z,-1.92
2022-12-18T18:23:35.991Z,-1.84
2022-12-18T18:26:03.653Z,-1.33
2022-12-18T18:28:31.041Z,-1.67
2022-12-18T18:31:03.636Z,-1.64
2022-12-18T18:33:30.256Z,-1.67
2022-12-18T18:35:56.679Z,-1.27
2022-12-18T18:38:23.124Z,-1.26
2022-12-18T18:40:58.179Z,-1.21
2022-12-18T18:43:24.642Z,-1.12
2022-12-18T18:45:55.095Z,-1.27
2022-12-18T18:48:22.944Z,-1.45
2022-12-18T18:50:56.135Z,-1.18
2022-12-18T18:53:22.559Z,-1.40
2022-12-18T18:56:03.961Z,-1.34
2022-12-18T18:58:35.505Z,-1.24
2022-12-18T19:01:04.896Z,-1.17
2022-12-18T19:03:33.696Z,-1.25
2022-12-18T19:06:01.372Z,-1.30
2022-12-18T19:08:30.161Z,-0.94
2022-12-18T19:10:59.064Z,-0.88
2022-12-18T19:13:27.984Z,-0.64
2022-12-18T19:15:56.036Z,-0.71
2022-12-18T19:18:23.289Z,-1.03
2022-12-18T19:20:59.024Z,-1.08
2022-12-18T19:23:25.625Z,-0.97
2022-12-18T19:25:59.484Z,-0.74
2022-12-18T19:28:38.893Z,-0.91
2022-12-18T19:31:07.846Z,-0.74
2022-12-18T19:33:44.137Z,-0.67
2022-12-18T19:36:15.048Z,-1.16
2022-12-18T19:38:44.135Z,-0.73
2022-12-18T19:41:12.453Z,-0.55
2022-12-18T19:43:40.642Z,-0.66
2022-12-18T19:46:08.232Z,-0.86
2022-12-18T19:48:35.170Z,-0.91
2022-12-18T19:51:04.888Z,-0.51
2022-12-18T19:53:32.690Z,-0.30
2022-12-18T19:55:59.289Z,-0.61
2022-12-18T19:58:25.753Z,-0.18
2022-12-18T20:00:52.188Z,-0.42
2022-12-18T20:03:27.351Z,-0.24
2022-12-18T20:06:08.110Z,0.32
2022-12-18T20:08:35.890Z,-0.12
2022-12-18T20:11:02.330Z,0.00
2022-12-18T20:13:28.778Z,0.27
2022-12-18T20:15:55.207Z,-0.02
2022-12-18T20:18:21.637Z,0.25
2022-12-18T20:20:49.326Z,-0.15
2022-12-18T20:23:17.278Z,-0.27
2022-12-18T20:25:45.223Z,0.02
2022-12-18T20:28:11.673Z,-0.06
2022-12-18T20:30:38.155Z,0.12
2022-12-18T20:33:04.989Z,-0.27
2022-12-18T20:35:32.145Z,-0.05
2022-12-18T20:37:59.213Z,-0.18
2022-12-18T20:40:27.441Z,-0.21
2022-12-18T20:42:55.221Z,0.23
2022-12-18T20:45:21.859Z,0.20
2022-12-18T20:47:48.238Z,0.25
2022-12-18T20:50:14.724Z,0.32
2022-12-18T20:52:41.163Z,0.32
2022-12-18T20:55:08.177Z,0.39
2022-12-18T20:57:35.160Z,0.46
2022-12-18T21:00:05.921Z,0.39
2022-12-18T21:02:33.371Z,0.06
2022-12-18T21:04:59.982Z,0.30
2022-12-18T21:07:26.361Z,0.23
2022-12-18T21:09:53.023Z,0.51
2022-12-18T21:12:20.009Z,0.00
2022-12-18T21:14:46.480Z,0.15
2022-12-18T21:17:16.147Z,0.24
2022-12-18T21:19:42.616Z,0.39
2022-12-18T21:22:09.954Z,0.32
2022-12-18T21:24:36.466Z,0.32
2022-12-18T21:27:03.115Z,0.07
2022-12-18T21:29:29.509Z,0.25
2022-12-18T21:31:55.984Z,-0.02
2022-12-18T21:34:25.712Z,-0.08
2022-12-18T21:36:52.250Z,0.19
2022-12-18T21:39:19.917Z,0.23
2022-12-18T21:41:49.353Z,0.33
2022-12-18T21:44:18.834Z,0.03
2022-12-18T21:46:51.517Z,-0.13
2022-12-18T21:49:20.494Z,0.04
2022-12-18T21:51:49.782Z,0.27
2022-12-18T21:54:16.472Z,0.12
2022-12-18T21:56:45.044Z,0.20
2022-12-18T21:59:13.024Z,-0.06
2022-12-18T22:01:39.585Z,0.14
2022-12-18T22:04:06.214Z,-0.01
2022-12-18T22:06:32.639Z,0.08
2022-12-18T22:09:00.414Z,-0.04
2022-12-18T22:11:26.861Z,-0.20
2022-12-18T22:13:53.311Z,-0.11
2022-12-18T22:16:19.805Z,0.22
2022-12-18T22:18:46.413Z,0.16
2022-12-18T22:21:28.527Z,0.11
2022-12-18T22:23:56.752Z,0.06
2022-12-18T22:26:25.982Z,0.28
2022-12-18T22:28:52.511Z,-0.05
2022-12-18T22:31:18.981Z,0.30
2022-12-18T22:33:45.423Z,0.59
2022-12-18T22:36:12.890Z,0.29
2022-12-18T22:38:39.340Z,0.17
2022-12-18T22:41:05.944Z,0.29
2022-12-18T22:43:33.712Z,-0.09
2022-12-18T22:46:03.050Z,0.32
2022-12-18T22:48:29.536Z,0.64
2022-12-18T22:50:56.751Z,0.35
2022-12-18T22:53:26.180Z,0.21
2022-12-18T22:56:00.263Z,0.28
2022-12-18T22:58:26.695Z,0.31
2022-12-18T23:00:54.479Z,0.14
2022-12-18T23:03:20.884Z,0.12
2022-12-18T23:05:47.329Z,0.17
2022-12-18T23:08:13.718Z,0.59
2022-12-18T23:10:40.132Z,0.38
2022-12-18T23:13:06.618Z,0.22
2022-12-18T23:15:33.052Z,0.26
2022-12-18T23:18:00.791Z,0.20
2022-12-18T23:20:28.149Z,0.38
2022-12-18T23:22:54.678Z,0.73
2022-12-18T23:25:21.090Z,0.47
2022-12-18T23:27:47.539Z,0.37
2022-12-18T23:30:14.034Z,0.38
2022-12-18T23:32:40.460Z,0.47
2022-12-18T23:35:08.686Z,0.36
2022-12-18T23:37:58.373Z,0.49
2022-12-18T23:40:23.283Z,0.22
2022-12-18T23:42:49.686Z,0.05
2022-12-18T23:45:17.938Z,0.03
2022-12-18T23:47:44.886Z,0.12
2022-12-18T23:50:15.031Z,-0.08
2022-12-18T23:52:41.676Z,0.21
2022-12-18T23:55:08.640Z,0.22
2022-12-18T23:57:35.052Z,0.01
